Time;durP1;ratioP1;P1;durP2;ratioP2;P2;SDS_P1;SDS_P2;PMS_P1;PMS_P2;Temp;Humidity;BMP_temperature;BMP_pressure;BME280_temperature;BME280_humidity;BME280_pressure;Samples;Min_cycle;Max_cycle;Signal;HPM_P1;HPM_P2
2022/08/29 17:17:41;;;;;;;;;4.00;3.33;;;;;26.39;54.28;98659.97;6090987;22;102398;-87
2022/08/29 17:20:10;;;;;;;;;4.67;4.00;;;;;26.33;54.52;98659.25;6021535;22;102661;-87
2022/08/29 17:22:39;;;;;;;;;4.00;4.00;;;;;26.28;54.87;98664.88;6070285;22;102508;-87
2022/08/29 17:25:12;;;;;;;;;6.67;5.67;;;;;26.19;54.99;98661.94;5992097;23;103698;-92
2022/08/29 17:27:40;;;;;;;;;8.33;7.67;;;;;26.21;55.18;98669.16;6000940;22;102311;-87
2022/08/29 17:30:28;;;;;;;;;7.00;6.00;;;;;26.19;55.05;98667.47;6034468;22;102881;-87
2022/08/29 17:32:57;;;;;;;;;7.33;6.00;;;;;26.14;55.63;98675.03;6040894;22;102381;-87
2022/08/29 17:35:24;;;;;;;;;6.00;6.00;;;;;26.14;55.41;98675.03;6034995;22;105292;-87
2022/08/29 17:37:53;;;;;;;;;8.33;8.33;;;;;26.13;55.40;98678.94;6033566;22;102560;-87
2022/08/29 17:40:21;;;;;;;;;8.67;7.00;;;;;26.15;55.53;98679.47;6013197;22;102619;-84
2022/08/29 17:42:48;;;;;;;;;8.00;6.00;;;;;26.19;55.91;98695.19;6046709;22;102640;-89
2022/08/29 17:45:15;;;;;;;;;6.33;6.00;;;;;26.18;55.72;98692.72;6024871;23;108930;-88
2022/08/29 17:47:45;;;;;;;;;8.33;6.33;;;;;26.16;55.70;98689.44;5822105;23;102605;-90
2022/08/29 17:50:12;;;;;;;;;7.67;7.67;;;;;26.12;55.28;98689.19;5966257;22;102557;-90
2022/08/29 17:52:40;;;;;;;;;7.33;6.00;;;;;26.13;55.82;98690.00;5913237;23;102688;-87
2022/08/29 17:55:07;;;;;;;;;7.33;7.33;;;;;26.14;55.85;98699.97;6054624;22;103944;-87
2022/08/29 17:57:42;;;;;;;;;7.67;6.33;;;;;26.08;55.80;98699.22;5975308;22;102598;-87
2022/08/29 18:00:10;;;;;;;;;5.67;5.00;;;;;26.11;56.00;98692.28;6062410;22;102544;-87
2022/08/29 18:02:38;;;;;;;;;8.67;7.00;;;;;26.12;56.08;98691.13;6106389;22;102381;-88
2022/08/29 18:05:09;;;;;;;;;5.67;5.67;;;;;26.07;55.86;98696.78;6007785;22;105038;-90
2022/08/29 18:07:39;;;;;;;;;8.33;6.00;;;;;26.03;55.67;98702.06;5921400;22;103690;-89
2022/08/29 18:10:17;;;;;;;;;9.00;7.00;;;;;26.02;55.54;98705.16;5950092;22;102431;-89
2022/08/29 18:12:54;;;;;;;;;6.67;6.33;;;;;25.99;55.63;98706.56;6000915;22;102595;-89
2022/08/29 18:15:40;;;;;;;;;8.00;6.33;;;;;25.98;55.51;98716.00;5827887;22;110841;-89
2022/08/29 18:18:17;;;;;;;;;9.00;7.00;;;;;26.03;55.65;98717.88;6034374;22;102727;-88
2022/08/29 18:20:44;;;;;;;;;6.33;6.33;;;;;25.94;55.66;98714.94;6037716;22;102731;-88
2022/08/29 18:23:11;;;;;;;;;6.67;6.67;;;;;25.94;55.83;98720.47;6037440;22;102545;-88
2022/08/29 18:25:38;;;;;;;;;7.33;7.00;;;;;25.91;55.68;98720.25;6049447;22;105363;-87
2022/08/29 18:28:07;;;;;;;;;8.33;6.33;;;;;25.89;55.60;98730.84;6148649;22;102684;-87
2022/08/29 18:30:34;;;;;;;;;6.00;6.00;;;;;25.96;55.50;98742.38;6093896;22;102465;-88
2022/08/29 18:33:11;;;;;;;;;;;;;;;;;;;;;
2022/08/29 18:36:32;;;;;;;;;7.00;7.00;;;;;25.88;55.51;98730.00;5951798;22;103577;-91
2022/08/29 18:39:18;;;;;;;;;6.67;6.67;;;;;25.92;55.38;98744.09;5925998;22;102200;-90
2022/08/29 18:42:25;;;;;;;;;5.67;5.67;;;;;25.96;55.48;98745.13;5851821;22;103593;-89
2022/08/29 18:45:23;;;;;;;;;10.00;8.67;;;;;25.92;55.44;98741.31;5762621;22;103440;-90
2022/08/29 18:52:32;;;;;;;;;;;;;;;;;;;;;
2022/08/29 18:58:43;;;;;;;;;46.00;37.50;;;;;25.94;55.58;98755.69;5766052;22;102695;-88
2022/08/29 19:01:12;;;;;;;;;49.25;41.00;;;;;25.98;55.74;98756.75;5907056;23;104967;-87
2022/08/29 19:03:48;;;;;;;;;52.50;43.25;;;;;25.96;56.05;98756.22;5883388;22;102643;-87
2022/08/29 19:06:30;;;;;;;;;57.25;46.00;;;;;25.92;55.90;98766.25;5764061;23;103443;-86
2022/08/29 19:09:36;;;;;;;;;;;;;;;;;;;;;
2022/08/29 19:12:23;;;;;;;;;73.25;60.00;;;;;25.86;55.62;98767.44;5817423;22;105074;-87
2022/08/29 19:14:52;;;;;;;;;81.25;70.25;;;;;25.85;55.58;98765.81;5935612;22;102808;-87
2022/08/29 19:17:22;;;;;;;;;80.75;69.25;;;;;25.91;55.86;98786.75;6067541;22;102408;-87
2022/08/29 19:22:39;;;;;;;;;92.75;77.00;;;;;25.81;55.78;98782.16;5896592;22;109410;-87
2022/08/29 19:25:07;;;;;;;;;83.50;70.50;;;;;25.85;55.51;98774.13;6061361;22;102692;-87
2022/08/29 19:27:36;;;;;;;;;78.25;67.50;;;;;25.84;55.59;98789.09;6028145;22;102525;-86
2022/08/29 19:30:14;;;;;;;;;83.75;74.25;;;;;25.83;55.56;98790.19;6028379;22;102563;-88
2022/08/29 19:32:42;;;;;;;;;82.75;68.75;;;;;25.82;55.36;98783.81;5958755;22;105187;-87
2022/08/29 19:35:11;;;;;;;;;76.50;65.50;;;;;25.80;55.48;98779.72;6005638;22;102317;-86
2022/08/29 19:37:41;;;;;;;;;82.25;70.75;;;;;25.80;55.66;98783.31;6064510;22;102669;-88
2022/08/29 19:40:11;;;;;;;;;77.75;67.25;;;;;25.76;55.43;98787.75;6063920;22;102146;-87
2022/08/29 19:42:41;;;;;;;;;75.50;68.25;;;;;25.76;55.48;98788.59;6115083;22;105302;-91
2022/08/29 19:45:17;;;;;;;;;77.25;66.75;;;;;25.76;55.53;98796.91;5962318;22;103195;-87
2022/08/29 19:47:44;;;;;;;;;76.00;68.50;;;;;25.75;55.71;98791.69;5932512;22;102770;-87
2022/08/29 19:50:14;;;;;;;;;74.50;64.00;;;;;25.75;55.26;98789.75;5881128;22;102685;-87
2022/08/29 19:52:42;;;;;;;;;80.50;68.50;;;;;25.71;55.69;98796.97;5984982;22;104450;-87
2022/08/29 19:55:11;;;;;;;;;75.25;61.25;;;;;25.69;55.84;98799.22;6060767;22;102415;-87
2022/08/29 19:57:41;;;;;;;;;77.75;66.25;;;;;25.69;55.75;98796.44;5935101;22;104506;-87
2022/08/29 20:00:10;;;;;;;;;76.00;62.25;;;;;25.68;55.94;98800.34;6001258;22;102650;-87
2022/08/29 20:02:42;;;;;;;;;78.75;66.75;;;;;25.66;55.83;98799.00;5951746;22;105713;-87
2022/08/29 20:05:19;;;;;;;;;76.25;67.25;;;;;25.68;55.86;98805.88;5928325;22;104152;-87
2022/08/29 20:07:48;;;;;;;;;75.00;63.75;;;;;25.67;55.72;98801.44;5945928;23;102694;-87
2022/08/29 20:10:20;;;;;;;;;75.75;59.75;;;;;25.63;55.72;98800.38;5956013;22;102719;-87
2022/08/29 20:12:48;;;;;;;;;73.75;61.25;;;;;25.62;55.67;98801.50;5940652;23;110648;-87
